Time;durP1;ratioP1;P1;durP2;ratioP2;P2;SDS_P1;SDS_P2;PMS_P1;PMS_P2;Temp;Humidity;BMP_temperature;BMP_pressure;BME280_temperature;BME280_humidity;BME280_pressure;Samples;Min_cycle;Max_cycle;Signal;HPM_P1;HPM_P2
2022/02/12 00:01:30;;;;;;;15.75;6.57;;;-0.40;99.90;;;0.08;96.95;102281.34;5068587;28;20116;-78
2022/02/12 00:03:56;;;;;;;14.77;5.32;;;-0.30;99.90;;;0.07;96.89;102286.00;5065827;28;20025;-78
2022/02/12 00:06:24;;;;;;;17.15;5.00;;;-0.30;99.90;;;0.03;96.51;102284.84;5050236;28;20036;-81
2022/02/12 00:08:50;;;;;;;19.42;5.50;;;-0.40;99.90;;;0.08;96.36;102276.69;5069878;28;20112;-79
2022/02/12 00:11:18;;;;;;;15.18;5.18;;;-0.30;99.90;;;0.04;96.08;102272.75;5071132;28;20029;-78
2022/02/12 00:13:44;;;;;;;19.08;5.45;;;-0.30;99.90;;;0.10;95.08;102266.25;5068810;28;20165;-79
2022/02/12 00:16:09;;;;;;;17.02;4.90;;;-0.20;99.90;;;0.16;94.19;102270.75;5068025;28;20039;-77
2022/02/12 00:18:35;;;;;;;13.73;4.78;;;-0.20;99.90;;;0.16;94.44;102262.50;5068859;28;20033;-79
2022/02/12 00:21:01;;;;;;;15.48;5.57;;;-0.30;99.90;;;0.04;94.20;102264.50;5068305;28;20029;-78
2022/02/12 00:23:27;;;;;;;13.40;5.13;;;-0.40;99.90;;;-0.19;95.02;102264.66;5068483;28;20032;-78
2022/02/12 00:25:53;;;;;;;21.10;8.68;;;-0.60;99.90;;;-0.26;96.51;102264.00;5050258;28;20473;-77
2022/02/12 00:28:19;;;;;;;21.63;6.97;;;-0.80;99.90;;;-0.41;97.40;102269.19;5067323;28;20032;-78
2022/02/12 00:30:44;;;;;;;12.20;5.85;;;-1.00;99.90;;;-0.77;97.56;102267.69;5067022;28;20043;-81
2022/02/12 00:33:15;;;;;;;15.85;7.07;;;-1.20;99.90;;;-1.06;98.78;102269.56;5068905;28;20096;-76
2022/02/12 00:35:47;;;;;;;14.40;5.70;;;-1.50;99.90;;;-1.25;100.00;102259.78;5070791;28;20064;-79
2022/02/12 00:38:15;;;;;;;12.90;5.35;;;-1.60;99.90;;;-1.32;100.00;102257.19;5052570;28;20052;-78
2022/02/12 00:40:43;;;;;;;17.23;6.05;;;-1.70;99.90;;;-1.30;100.00;102260.53;5072476;28;20029;-79
2022/02/12 00:43:11;;;;;;;16.88;6.40;;;-1.70;99.90;;;-1.32;100.00;102253.63;5072104;28;20086;-80
2022/02/12 00:45:37;;;;;;;14.80;6.28;;;-1.80;99.90;;;-1.39;100.00;102245.53;5071899;28;20029;-79
2022/02/12 00:48:04;;;;;;;11.57;5.10;;;-1.80;99.90;;;-1.39;100.00;102255.66;5054400;28;20016;-78
2022/02/12 00:50:29;;;;;;;16.55;6.10;;;-1.80;99.90;;;-1.40;100.00;102251.22;5053953;28;20132;-79
2022/02/12 00:52:56;;;;;;;13.65;5.57;;;-1.90;99.90;;;-1.51;100.00;102247.44;5071811;28;20032;-76
2022/02/12 00:55:25;;;;;;;15.90;6.32;;;-1.90;99.90;;;-1.56;100.00;102244.56;5054159;28;20025;-78
2022/02/12 00:57:51;;;;;;;16.10;5.55;;;-2.00;99.90;;;-1.60;100.00;102244.22;5072162;28;20037;-79
2022/02/12 01:00:21;;;;;;;17.75;6.57;;;-1.90;99.90;;;-1.48;100.00;102237.91;5053620;28;20028;-80
2022/02/12 01:02:47;;;;;;;14.38;5.28;;;-1.90;99.90;;;-1.38;100.00;102246.38;5070355;28;20028;-79
2022/02/12 01:05:13;;;;;;;12.73;5.28;;;-1.80;99.90;;;-1.24;100.00;102242.28;5070351;28;20037;-78
2022/02/12 01:07:39;;;;;;;13.93;5.28;;;-1.60;99.90;;;-0.96;100.00;102236.84;5071142;28;20021;-77
2022/02/12 01:10:06;;;;;;;16.25;4.88;;;-1.30;99.90;;;-0.60;100.00;102243.88;5071924;28;20055;-79
2022/02/12 01:12:36;;;;;;;13.45;4.65;;;-1.00;99.90;;;-0.48;100.00;102249.31;5072828;28;20037;-79
2022/02/12 01:15:04;;;;;;;12.32;5.28;;;-0.90;99.90;;;-0.36;99.29;102244.59;5072244;28;20028;-80
2022/02/12 01:17:35;;;;;;;14.43;5.22;;;-0.70;99.90;;;-0.35;99.16;102243.53;5072256;28;20067;-80
2022/02/12 01:20:07;;;;;;;17.35;5.65;;;-0.80;99.90;;;-0.43;98.81;102243.91;5072753;28;20012;-79
2022/02/12 01:22:37;;;;;;;15.25;5.07;;;-0.80;99.90;;;-0.42;98.83;102238.19;5072309;28;20025;-79
2022/02/12 01:25:04;;;;;;;15.93;5.13;;;-0.70;99.90;;;-0.41;99.05;102252.72;5073192;28;20035;-79
2022/02/12 01:27:33;;;;;;;16.85;6.57;;;-0.70;99.90;;;-0.39;97.22;102248.69;5073267;28;20088;-78
2022/02/12 01:29:59;;;;;;;11.65;5.03;;;-0.80;99.90;;;-0.64;98.42;102237.19;5073202;28;20101;-78
2022/02/12 01:32:31;;;;;;;17.65;4.95;;;-1.00;99.90;;;-0.69;100.00;102243.44;5072347;28;20116;-79
2022/02/12 01:34:57;;;;;;;17.77;4.63;;;-1.00;99.90;;;-0.54;99.49;102242.88;5072721;28;20048;-78
2022/02/12 01:37:23;;;;;;;9.82;4.03;;;-0.90;99.90;;;-0.44;98.88;102243.06;5072675;28;20041;-78
2022/02/12 01:39:51;;;;;;;14.20;4.40;;;-0.80;99.90;;;-0.35;98.02;102236.09;5072367;28;20052;-77
2022/02/12 01:42:18;;;;;;;17.23;5.40;;;-0.80;99.90;;;-0.42;97.36;102237.34;5073421;28;20076;-78
2022/02/12 01:44:47;;;;;;;13.77;5.13;;;-0.90;99.90;;;-0.61;97.57;102245.78;5075797;28;20032;-77
2022/02/12 01:47:15;;;;;;;15.02;4.93;;;-1.10;99.90;;;-0.84;97.95;102243.13;5075525;28;20106;-80
2022/02/12 01:49:41;;;;;;;10.75;5.00;;;-1.30;99.90;;;-1.04;99.22;102244.63;5074048;28;20009;-79
2022/02/12 01:52:14;;;;;;;13.82;5.28;;;-1.50;99.90;;;-1.14;100.00;102239.75;5073699;28;20043;-79
2022/02/12 01:54:43;;;;;;;14.88;5.25;;;-1.60;99.90;;;-1.24;100.00;102239.53;5071987;28;20100;-80
2022/02/12 01:57:09;;;;;;;13.98;5.55;;;-1.70;99.90;;;-1.33;100.00;102230.03;5071342;28;20029;-77
2022/02/12 01:59:35;;;;;;;15.60;5.47;;;-1.80;99.90;;;-1.44;100.00;102239.91;5071791;28;20054;-78
2022/02/12 02:02:03;;;;;;;20.60;5.40;;;-1.80;99.90;;;-1.49;100.00;102228.84;5072904;28;20036;-78
2022/02/12 02:04:29;;;;;;;13.82;4.60;;;-2.00;99.90;;;-1.54;100.00;102220.50;5073994;28;20029;-78
2022/02/12 02:06:59;;;;;;;15.85;5.18;;;-1.90;99.90;;;-1.46;100.00;102222.88;5073490;28;20056;-78
2022/02/12 02:09:30;;;;;;;13.68;5.70;;;-1.90;99.90;;;-1.50;100.00;102216.22;5071405;28;20035;-78
2022/02/12 02:11:56;;;;;;;14.23;5.05;;;-1.90;99.90;;;-1.49;100.00;102209.66;5069118;28;20025;-78
2022/02/12 02:14:40;;;;;;;15.27;4.95;;;-1.90;99.90;;;-1.23;100.00;102211.06;5068469;28;20037;-78
2022/02/12 02:17:10;;;;;;;18.67;3.72;;;-1.60;99.90;;;-0.88;100.00;102202.72;5070317;28;20033;-78
2022/02/12 02:19:37;;;;;;;14.20;4.00;;;-1.30;99.90;;;-0.68;100.00;102205.84;5070029;28;20283;-78
2022/02/12 02:22:05;;;;;;;10.40;3.88;;;-1.10;99.90;;;-0.53;99.89;102206.13;5068966;28;20060;-77
2022/02/12 02:24:32;;;;;;;9.52;3.65;;;-1.00;99.90;;;-0.47;99.37;102193.31;5068858;28;20036;-78
2022/02/12 02:27:14;;;;;;;11.23;3.70;;;-0.90;99.90;;;-0.45;98.02;102202.97;5070499;28;20044;-76
2022/02/12 02:29:42;;;;;;;11.68;3.75;;;-0.90;99.90;;;-0.49;97.26;102198.22;5074206;28;20025;-77
2022/02/12 02:32:12;;;;;;;9.88;3.08;;;-0.80;99.90;;;-0.26;95.72;102212.66;5073309;28;20035;-81
2022/02/12 02:34:54;;;;;;;9.88;3.42;;;-0.70;99.90;;;-0.19;94.88;102201.50;5073566;28;20029;-79
2022/02/12 02:37:24;;;;;;;11.23;3.40;;;-0.60;99.90;;;-0.18;94.53;102198.50;5073733;28;20379;-79
2022/02/12 02:39:50;;;;;;;11.70;3.63;;;-0.50;99.90;;;-0.19;94.02;102185.00;5074637;28;20029;-80
2022/02/12 02:42:17;;;;;;;9.07;3.63;;;-0.50;99.90;;;-0.12;93.89;102193.94;5074437;28;20059;-81
2022/02/12 02:44:46;;;;;;;13.50;3.40;;;-0.60;99.90;;;-0.15;93.53;102197.16;5073564;28;20047;-79
2022/02/12 02:49:56;;;;;;;14.23;3.50;;;-0.50;99.90;;;-0.13;92.97;102189.53;5073501;28;20063;-79
2022/02/12 02:57:53;;;;;;;19.90;4.00;;;-0.50;99.90;;;-0.08;92.19;102189.59;5070038;28;20035;-80
2022/02/12 03:00:19;;;;;;;11.90;3.47;;;-0.50;99.90;;;-0.15;92.07;102184.28;5073011;28;20055;-79
2022/02/12 03:02:46;;;;;;;15.45;5.28;;;-0.50;99.90;;;-0.06;91.96;102185.53;5074050;28;20100;-78
2022/02/12 03:05:12;;;;;;;12.75;3.28;;;-0.50;99.90;;;-0.08;92.14;102186.84;5074116;28;20017;-77
2022/02/12 03:07:38;;;;;;;9.65;3.17;;;-0.40;99.90;;;-0.15;91.83;102183.44;5072459;28;20037;-77
2022/02/12 03:10:08;;;;;;;10.18;3.47;;;-0.50;99.90;;;-0.22;92.30;102177.28;5072466;28;20048;-78
2022/02/12 03:12:35;;;;;;;18.00;4.55;;;-0.60;99.90;;;-0.18;92.40;102178.44;5072780;28;20025;-77
2022/02/12 03:15:03;;;;;;;11.63;3.50;;;-0.60;99.90;;;-0.28;92.56;102170.88;5073798;28;20036;-78
2022/02/12 03:17:29;;;;;;;11.23;3.25;;;-0.60;99.90;;;-0.36;92.36;102178.72;5074129;28;20078;-79
2022/02/12 03:19:55;;;;;;;12.20;3.17;;;-0.70;99.90;;;-0.40;93.71;102178.38;5073558;28;20036;-78
2022/02/12 03:22:22;;;;;;;9.57;3.15;;;-0.80;99.90;;;-0.46;94.23;102167.53;5073220;28;20040;-78
2022/02/12 03:24:47;;;;;;;10.38;3.85;;;-0.80;99.90;;;-0.32;93.41;102169.69;5073387;28;20021;-79
2022/02/12 03:27:13;;;;;;;27.50;3.55;;;-0.70;99.90;;;-0.25;93.16;102164.03;5073846;28;20033;-78
2022/02/12 03:29:42;;;;;;;11.10;3.20;;;-0.70;99.90;;;-0.35;93.51;102150.19;5073415;28;20036;-79
2022/02/12 03:32:09;;;;;;;13.65;2.90;;;-0.70;99.90;;;-0.34;93.22;102158.16;5052257;28;20330;-80
2022/02/12 03:34:35;;;;;;;8.63;3.33;;;-0.60;99.90;;;-0.30;93.26;102164.81;5069929;28;20060;-79
2022/02/12 03:37:00;;;;;;;10.02;3.30;;;-0.60;99.90;;;-0.34;93.36;102151.81;5071303;28;20029;-78
2022/02/12 03:39:26;;;;;;;13.77;3.53;;;-0.70;99.90;;;-0.29;92.84;102152.72;5070311;28;20048;-79
2022/02/12 03:41:53;;;;;;;10.88;3.88;;;-0.70;99.90;;;-0.37;92.92;102150.41;5070853;28;20031;-79
2022/02/12 03:44:22;;;;;;;18.35;3.60;;;-0.70;99.90;;;-0.31;92.87;102149.41;5071352;28;20144;-77
2022/02/12 03:46:51;;;;;;;10.75;3.25;;;-0.70;99.90;;;-0.36;93.03;102146.59;5071108;28;20104;-78
2022/02/12 03:49:16;;;;;;;11.20;3.28;;;-0.70;99.90;;;-0.35;92.96;102148.25;5070476;28;20025;-78
2022/02/12 03:51:45;;;;;;;8.80;3.22;;;-0.70;99.90;;;-0.35;93.01;102139.19;5069661;28;20048;-78
2022/02/12 03:54:11;;;;;;;13.77;3.45;;;-0.70;99.90;;;-0.32;92.46;102127.72;5067871;28;20041;-80
2022/02/12 03:56:40;;;;;;;11.18;3.15;;;-0.70;99.90;;;-0.27;92.80;102138.75;5054914;28;20025;-79
2022/02/12 03:59:12;;;;;;;10.98;3.20;;;-0.70;99.90;;;-0.29;92.35;102136.25;5074333;28;20095;-79
2022/02/12 04:01:38;;;;;;;14.05;3.22;;;-0.60;99.90;;;-0.31;92.48;102141.16;5073397;28;20040;-80
2022/02/12 04:04:04;;;;;;;9.77;3.45;;;-0.60;99.90;;;-0.30;92.51;102140.09;5073982;28;20028;-77
2022/02/12 04:06:30;;;;;;;14.25;3.53;;;-0.60;99.90;;;-0.40;93.09;102126.22;5074449;28;20024;-79
2022/02/12 04:08:56;;;;;;;17.83;3.33;;;-0.60;99.90;;;-0.35;92.62;102130.97;5074687;28;20032;-82
2022/02/12 04:11:22;;;;;;;9.73;2.80;;;-0.60;99.90;;;-0.31;91.96;102130.19;5075166;28;20029;-79
2022/02/12 04:13:52;;;;;;;7.80;2.88;;;-0.60;99.90;;;-0.26;92.35;102137.69;5074517;28;20024;-80
2022/02/12 04:16:19;;;;;;;12.82;3.20;;;-0.60;99.90;;;-0.32;92.28;102125.78;5074609;28;20017;-77
2022/02/12 04:18:45;;;;;;;17.60;4.10;;;-0.70;99.90;;;-0.34;92.13;102127.94;5075088;28;20039;-79
2022/02/12 04:21:13;;;;;;;10.05;3.13;;;-0.70;99.90;;;-0.29;92.06;102125.28;5074706;22;20045;-77
2022/02/12 04:23:40;;;;;;;17.25;3.50;;;-0.70;99.90;;;-0.22;92.16;102130.59;5037551;28;20487;-75
2022/02/12 04:26:08;;;;;;;12.50;2.90;;;-0.70;99.90;;;-0.24;92.36;102127.28;5055607;28;20033;-77
2022/02/12 04:28:37;;;;;;;9.93;2.83;;;-0.60;99.90;;;-0.27;91.90;102116.81;5037877;28;20040;-75
2022/02/12 04:31:04;;;;;;;12.73;3.17;;;-0.70;99.90;;;-0.33;91.85;102109.56;5058035;28;20036;-76
2022/02/12 04:33:35;;;;;;;8.85;3.28;;;-0.70;99.90;;;-0.31;92.25;102112.88;5055687;28;20504;-77
2022/02/12 04:36:01;;;;;;;11.75;4.85;;;-0.70;99.90;;;-0.26;91.83;102110.22;5038225;28;20263;-76
2022/02/12 04:38:27;;;;;;;10.02;3.60;;;-0.70;99.90;;;-0.28;91.50;102107.72;5056180;28;20408;-78
2022/02/12 04:40:56;;;;;;;8.55;3.30;;;-0.60;99.90;;;-0.25;91.50;102111.88;5055330;28;20466;-77
2022/02/12 04:43:22;;;;;;;5.50;3.15;;;-0.70;99.90;;;-0.28;91.81;102104.13;5037568;28;20040;-78
2022/02/12 04:45:49;;;;;;;10.52;3.25;;;-0.70;99.90;;;-0.32;92.00;102105.75;5055008;28;20139;-76
2022/02/12 04:48:15;;;;;;;9.30;3.45;;;-0.70;99.90;;;-0.31;92.18;102099.16;5054362;28;20463;-77
2022/02/12 04:50:40;;;;;;;11.15;3.58;;;-0.70;99.90;;;-0.33;91.52;102095.84;5072871;28;20067;-76
2022/02/12 04:53:06;;;;;;;11.10;3.20;;;-0.80;99.90;;;-0.39;91.83;102107.81;5074818;28;20048;-75
2022/02/12 04:55:32;;;;;;;11.68;3.00;;;-0.80;99.90;;;-0.42;91.64;102095.44;5075701;28;20446;-76
2022/02/12 04:57:58;;;;;;;10.95;3.10;;;-0.90;99.90;;;-0.51;92.37;102096.91;5074892;28;20060;-77
2022/02/12 05:00:35;;;;;;;13.55;3.45;;;-0.90;99.90;;;-0.46;91.81;102087.94;5075196;28;20027;-79
2022/02/12 05:03:01;;;;;;;16.88;4.03;;;-0.90;99.90;;;-0.44;91.75;102088.50;5073584;28;20098;-78
2022/02/12 05:05:27;;;;;;;12.73;3.63;;;-0.90;99.90;;;-0.51;91.97;102079.63;5074523;28;20040;-77
2022/02/12 05:07:53;;;;;;;10.82;3.45;;;-0.90;99.90;;;-0.56;91.73;102077.63;5074656;28;20044;-75
2022/02/12 05:10:18;;;;;;;16.08;3.47;;;-1.00;99.90;;;-0.58;91.95;102080.59;5075054;28;20102;-77
2022/02/12 05:12:44;;;;;;;29.13;4.45;;;-1.00;99.90;;;-0.57;92.23;102073.22;5075354;28;20064;-76
2022/02/12 05:15:10;;;;;;;11.82;3.55;;;-1.00;99.90;;;-0.55;91.77;102071.88;5074899;28;20048;-77
2022/02/12 05:17:42;;;;;;;9.73;3.40;;;-0.90;99.90;;;-0.52;91.77;102078.81;5057142;28;20028;-75
2022/02/12 05:20:11;;;;;;;14.75;3.58;;;-0.90;99.90;;;-0.50;91.82;102078.53;5072884;28;20033;-77
2022/02/12 05:22:37;;;;;;;10.20;3.50;;;-0.90;99.90;;;-0.46;91.56;102079.72;5074877;28;20038;-77
2022/02/12 05:25:05;;;;;;;10.93;3.80;;;-0.90;99.90;;;-0.51;91.88;102077.69;5056324;28;20036;-78
2022/02/12 05:27:32;;;;;;;11.38;3.70;;;-0.90;99.90;;;-0.50;92.23;102084.03;5074119;28;20088;-77
2022/02/12 05:29:58;;;;;;;11.15;3.75;;;-0.80;99.90;;;-0.44;92.21;102078.38;5073509;28;20055;-78
2022/02/12 05:32:24;;;;;;;16.58;3.80;;;-0.80;99.90;;;-0.39;92.08;102078.47;5074158;28;20071;-76
2022/02/12 05:34:50;;;;;;;9.30;3.60;;;-0.80;99.90;;;-0.38;92.01;102071.03;5055999;28;20035;-78
2022/02/12 05:37:16;;;;;;;14.85;4.05;;;-0.80;99.90;;;-0.37;91.91;102075.44;5074715;28;20028;-75
2022/02/12 05:39:43;;;;;;;15.70;4.30;;;-0.80;99.90;;;-0.40;92.37;102073.22;5073982;28;20040;-78
2022/02/12 05:42:08;;;;;;;11.05;4.25;;;-0.80;99.90;;;-0.37;92.12;102078.19;5074416;28;20368;-79
2022/02/12 05:44:34;;;;;;;11.32;4.75;;;-0.70;99.90;;;-0.40;92.49;102075.94;5074204;28;20120;-79
2022/02/12 05:47:00;;;;;;;11.38;4.32;;;-0.80;99.90;;;-0.46;92.58;102068.72;5056798;28;20040;-76
2022/02/12 05:49:26;;;;;;;13.10;5.10;;;-0.80;99.90;;;-0.47;92.91;102070.63;5048843;28;20029;-77
2022/02/12 05:51:52;;;;;;;15.57;4.63;;;-0.80;99.90;;;-0.43;92.80;102060.81;5055683;28;20040;-78
2022/02/12 05:54:21;;;;;;;16.73;4.50;;;-0.80;99.90;;;-0.45;92.64;102051.19;5036751;28;20033;-76
2022/02/12 05:56:46;;;;;;;15.57;4.72;;;-0.80;99.90;;;-0.42;92.15;102051.50;5036571;28;20029;-76
2022/02/12 05:59:13;;;;;;;12.15;3.83;;;-0.70;99.90;;;-0.37;91.69;102045.25;5054011;28;20044;-76
2022/02/12 06:01:42;;;;;;;13.50;5.10;;;-0.80;99.90;;;-0.42;91.49;102045.19;5054937;28;20113;-78
2022/02/12 06:04:09;;;;;;;14.25;4.53;;;-0.80;99.90;;;-0.40;91.78;102049.34;5058962;28;20033;-77
2022/02/12 06:06:35;;;;;;;19.00;4.70;;;-0.80;99.90;;;-0.43;91.94;102043.53;5057913;28;20437;-77
2022/02/12 06:09:00;;;;;;;15.90;3.70;;;-0.80;99.90;;;-0.43;92.02;102040.78;5057876;28;20048;-76
2022/02/12 06:11:26;;;;;;;14.10;4.63;;;-0.80;99.90;;;-0.47;92.14;102034.13;5057564;28;20060;-75
2022/02/12 06:13:52;;;;;;;14.50;4.70;;;-0.80;99.90;;;-0.41;91.69;102044.94;5057677;28;20040;-79
2022/02/12 06:16:23;;;;;;;16.45;4.47;;;-0.80;99.90;;;-0.32;90.94;102037.91;5058682;28;20424;-75
2022/02/12 06:18:50;;;;;;;15.38;3.97;;;-0.70;99.90;;;-0.38;91.33;102043.59;5057708;28;20025;-77
2022/02/12 06:21:16;;;;;;;16.77;4.60;;;-0.70;99.90;;;-0.37;91.39;102042.50;5040073;28;20033;-77
2022/02/12 06:23:42;;;;;;;12.13;4.00;;;-0.70;99.90;;;-0.39;91.47;102040.03;5057162;28;20029;-79
2022/02/12 06:26:11;;;;;;;21.02;4.60;;;-0.70;99.90;;;-0.37;91.33;102035.09;5057457;28;20087;-75
2022/02/12 06:28:37;;;;;;;12.10;3.75;;;-0.80;99.90;;;-0.37;91.10;102035.09;5057422;28;20029;-78
2022/02/12 06:31:03;;;;;;;12.27;4.07;;;-0.80;99.90;;;-0.38;91.03;102038.09;5057623;28;20029;-79
2022/02/12 06:33:32;;;;;;;14.55;3.92;;;-0.80;99.90;;;-0.40;91.39;102035.63;5057610;28;20025;-76
2022/02/12 06:35:58;;;;;;;12.88;3.97;;;-0.80;99.90;;;-0.39;91.23;102020.81;5040828;28;20020;-77
2022/02/12 06:38:27;;;;;;;11.82;3.75;;;-0.80;99.90;;;-0.38;91.73;102027.09;5039352;28;20040;-76
2022/02/12 06:40:53;;;;;;;14.75;4.15;;;-0.80;99.90;;;-0.36;91.33;102020.31;5058008;28;20036;-78
2022/02/12 06:43:19;;;;;;;13.73;3.80;;;-0.80;99.90;;;-0.37;91.87;102026.88;5058628;28;20033;-79
2022/02/12 06:45:45;;;;;;;11.32;3.85;;;-0.80;99.90;;;-0.40;91.68;102026.53;5057529;28;20041;-77
2022/02/12 06:48:11;;;;;;;11.80;4.38;;;-0.80;99.90;;;-0.40;91.71;102019.16;5058016;28;20037;-77
2022/02/12 06:50:37;;;;;;;14.80;3.70;;;-0.80;99.90;;;-0.39;92.08;102022.72;5056891;28;20043;-78
2022/02/12 06:53:03;;;;;;;17.85;4.40;;;-0.80;99.90;;;-0.34;92.06;102020.03;5058705;28;20446;-76
2022/02/12 06:55:29;;;;;;;16.80;3.97;;;-0.80;99.90;;;-0.34;91.71;102011.81;5058435;28;20028;-78
2022/02/12 06:57:54;;;;;;;13.77;4.05;;;-0.80;99.90;;;-0.33;91.76;102018.97;5085816;28;20028;-76
2022/02/12 07:00:20;;;;;;;18.13;4.72;;;-0.70;99.90;;;-0.37;92.00;102018.63;5091915;28;20020;-77
2022/02/12 07:02:51;;;;;;;18.38;5.30;;;-0.80;99.90;;;-0.33;92.02;102017.06;5091968;28;20028;-78
2022/02/12 07:05:18;;;;;;;10.88;3.90;;;-0.70;99.90;;;-0.33;92.08;102011.56;5078041;28;20028;-77
2022/02/12 07:07:50;;;;;;;10.50;4.30;;;-0.80;99.90;;;-0.34;92.09;102014.53;5059430;28;20059;-79
2022/02/12 07:10:18;;;;;;;16.40;4.30;;;-0.80;99.90;;;-0.31;91.79;102005.81;5077569;28;20060;-74
2022/02/12 07:12:44;;;;;;;15.13;5.15;;;-0.70;99.90;;;-0.28;91.91;102014.38;5078111;28;20025;-78
2022/02/12 07:15:13;;;;;;;18.45;4.97;;;-0.70;99.90;;;-0.15;91.12;102007.69;5059240;28;20074;-77
2022/02/12 07:17:39;;;;;;;12.65;4.30;;;-0.60;99.90;;;-0.10;90.96;102003.06;5078648;28;20170;-79
2022/02/12 07:20:14;;;;;;;16.45;4.78;;;-0.60;99.90;;;-0.07;90.76;102008.09;5078563;28;20384;-78
2022/02/12 07:22:41;;;;;;;14.05;4.05;;;-0.50;99.90;;;0.10;90.13;102010.75;5077385;28;20028;-76
2022/02/12 07:25:09;;;;;;;12.52;3.72;;;-0.30;99.90;;;0.22;89.43;102010.63;5078043;28;20029;-76
2022/02/12 07:27:38;;;;;;;13.55;3.83;;;-0.20;99.90;;;0.31;89.06;102004.44;5077860;28;20043;-77
2022/02/12 07:30:08;;;;;;;16.85;4.20;;;-0.10;99.90;;;0.43;88.46;101996.88;5077405;28;20032;-77
2022/02/12 07:32:39;;;;;;;12.65;4.30;;;0.00;99.90;;;0.56;87.76;102001.13;5078047;28;20033;-77
2022/02/12 07:35:13;;;;;;;17.85;3.97;;;0.10;99.90;;;0.81;87.12;102012.38;5076580;28;20495;-75
2022/02/12 07:37:50;;;;;;;11.95;3.03;;;0.20;99.90;;;0.79;86.12;102002.72;5060233;28;20504;-78
2022/02/12 07:40:19;;;;;;;13.93;3.33;;;0.30;99.90;;;0.89;85.47;102005.59;5077926;28;20074;-77
2022/02/12 07:42:47;;;;;;;17.38;4.65;;;0.40;99.90;;;0.87;85.69;102007.75;5061498;28;20471;-76
2022/02/12 07:45:16;;;;;;;12.77;3.75;;;0.40;99.90;;;0.98;85.65;102004.00;5077252;28;20047;-77
2022/02/12 07:47:42;;;;;;;12.45;3.67;;;0.40;99.90;;;0.98;85.50;102001.25;5077672;28;20098;-76
2022/02/12 07:50:17;;;;;;;16.42;3.50;;;0.50;99.90;;;1.08;84.83;101997.78;5063431;28;20496;-76
2022/02/12 07:52:44;;;;;;;14.30;4.05;;;0.60;99.90;;;1.22;83.98;101997.06;5057924;28;20033;-78
2022/02/12 07:55:12;;;;;;;11.90;3.90;;;0.70;99.90;;;1.45;83.84;102004.09;5056741;28;20066;-77
2022/02/12 07:57:38;;;;;;;10.52;4.20;;;0.90;99.90;;;1.71;82.81;102000.44;5057296;28;20029;-75
2022/02/12 08:00:07;;;;;;;11.02;4.10;;;1.00;99.90;;;1.65;82.29;102000.66;5038776;28;20029;-75
2022/02/12 08:02:33;;;;;;;10.90;3.22;;;1.10;99.90;;;1.62;82.41;102003.94;5056982;28;20033;-79
2022/02/12 08:04:59;;;;;;;15.05;4.22;;;1.20;99.90;;;1.74;82.67;102010.91;5057953;28;20375;-78
2022/02/12 08:07:28;;;;;;;13.90;3.88;;;1.20;99.90;;;1.75;81.88;102009.00;5056697;28;20032;-75
2022/02/12 08:13:04;;;;;;;15.15;5.00;;;1.30;99.90;;;1.79;82.93;102005.44;5057580;28;20067;-77
2022/02/12 08:15:30;;;;;;;14.63;3.70;;;1.40;99.90;;;1.89;82.35;102008.25;5057099;28;20309;-78
2022/02/12 08:17:58;;;;;;;15.60;4.25;;;1.40;99.90;;;2.27;82.44;102009.81;5056946;28;20029;-77
2022/02/12 08:20:26;;;;;;;12.52;3.47;;;1.70;99.90;;;2.74;81.11;101995.88;5055752;28;20029;-77
2022/02/12 08:22:52;;;;;;;15.50;4.00;;;2.00;99.90;;;2.91;79.37;102001.13;5056754;28;20507;-75
2022/02/12 08:25:21;;;;;;;8.80;3.58;;;2.20;99.90;;;3.04;78.05;102003.34;5036831;28;20167;-77
2022/02/12 08:27:48;;;;;;;10.95;3.58;;;2.30;99.90;;;3.22;77.64;101991.75;5055844;28;20036;-75
2022/02/12 08:30:17;;;;;;;12.18;3.70;;;2.40;99.90;;;3.26;77.41;101997.56;5055057;28;20056;-77
2022/02/12 08:32:43;;;;;;;15.32;4.78;;;2.50;99.90;;;3.14;78.14;102003.38;5055946;28;20067;-79
2022/02/12 08:35:12;;;;;;;11.82;3.75;;;2.50;99.90;;;3.00;78.51;101994.78;5056042;28;20028;-76
2022/02/12 08:37:45;;;;;;;12.15;4.03;;;2.40;99.90;;;2.92;78.29;101984.28;5056026;28;20572;-76
2022/02/12 08:40:23;;;;;;;12.75;3.83;;;2.40;99.90;;;2.95;78.13;101992.03;5038933;28;20060;-79
2022/02/12 08:42:51;;;;;;;17.02;4.43;;;2.40;99.90;;;3.22;77.72;101975.19;5039132;28;20036;-77
2022/02/12 08:45:17;;;;;;;8.05;3.92;;;2.60;99.90;;;3.57;77.04;101986.19;5054846;28;20025;-77
2022/02/12 08:47:44;;;;;;;15.27;4.22;;;2.80;99.90;;;3.64;75.70;101983.16;5040009;28;20407;-75
2022/02/12 08:50:12;;;;;;;9.38;3.55;;;2.90;99.90;;;3.87;74.75;101978.94;5070246;28;20033;-76
2022/02/12 08:52:40;;;;;;;12.73;3.97;;;3.00;99.90;;;4.05;74.53;101976.38;5077081;28;20025;-78
2022/02/12 08:55:11;;;;;;;20.15;5.15;;;3.20;99.90;;;3.68;74.96;101967.66;5077632;28;20028;-76
2022/02/12 08:57:38;;;;;;;13.55;4.00;;;3.20;99.90;;;4.08;73.35;101980.50;5076498;28;20032;-79
2022/02/12 09:00:09;;;;;;;12.10;3.70;;;3.30;99.90;;;4.28;74.19;101971.31;5075713;28;20077;-76
2022/02/12 09:02:35;;;;;;;10.70;3.35;;;3.40;99.90;;;4.41;72.61;101968.75;5057175;28;20024;-78
2022/02/12 09:05:03;;;;;;;15.48;4.03;;;3.60;99.90;;;4.32;72.07;101959.41;5075352;28;20028;-77
2022/02/12 09:07:29;;;;;;;15.02;3.67;;;3.70;99.90;;;4.56;71.43;101965.88;5074572;28;20028;-77
2022/02/12 09:09:54;;;;;;;10.20;3.15;;;3.90;99.90;;;4.63;71.09;101951.72;5057050;28;20387;-76
2022/02/12 09:12:29;;;;;;;11.57;3.78;;;3.90;99.90;;;4.72;70.58;101959.13;5075286;28;20420;-79
2022/02/12 09:14:58;;;;;;;11.07;3.50;;;4.00;99.90;;;4.79;70.25;101961.56;5075755;28;20040;-78
2022/02/12 09:17:25;;;;;;;17.92;4.35;;;4.10;99.90;;;4.59;70.25;101957.00;5076523;28;20064;-79
2022/02/12 09:19:58;;;;;;;12.85;3.50;;;4.00;99.90;;;4.74;70.70;101954.16;5077142;28;20048;-77
2022/02/12 09:22:26;;;;;;;9.18;3.33;;;4.10;99.90;;;5.11;69.92;101953.56;5075769;28;20140;-77
2022/02/12 09:24:52;;;;;;;8.02;3.00;;;4.30;99.90;;;5.48;67.75;101955.75;5076677;28;20379;-79
2022/02/12 09:27:18;;;;;;;12.57;3.75;;;4.50;99.90;;;5.46;67.69;101949.63;5075487;28;20111;-77
2022/02/12 09:29:44;;;;;;;15.93;4.25;;;4.60;99.90;;;4.97;68.99;101947.06;5075182;28;20036;-75
2022/02/12 09:32:10;;;;;;;15.13;4.60;;;4.50;99.90;;;4.82;69.18;101941.63;5075327;28;20036;-76
2022/02/12 09:34:35;;;;;;;17.85;4.75;;;4.40;99.90;;;5.00;68.76;101945.66;5075624;28;20479;-76
2022/02/12 09:37:01;;;;;;;12.05;2.85;;;4.50;99.90;;;5.13;66.87;101948.59;5076073;28;20024;-77
2022/02/12 09:39:30;;;;;;;17.05;3.65;;;4.60;99.90;;;5.31;67.26;101938.72;5081217;28;20055;-77
2022/02/12 09:41:59;;;;;;;11.35;3.75;;;4.70;99.90;;;5.31;67.54;101934.00;5081287;28;20069;-79
2022/02/12 09:44:25;;;;;;;14.05;3.35;;;4.80;99.90;;;5.60;67.33;101935.94;5082862;28;20044;-77
2022/02/12 09:47:37;;;;;;;13.98;4.15;;;5.00;99.90;;;5.45;65.81;101925.84;5064405;28;20146;-76
2022/02/12 09:50:06;;;;;;;13.98;3.45;;;5.00;99.90;;;5.44;65.07;101926.94;5070260;28;20040;-77
2022/02/12 09:52:34;;;;;;;12.38;3.38;;;5.00;99.90;;;5.24;65.58;101919.66;5063002;28;20559;-79
2022/02/12 09:55:04;;;;;;;11.13;3.63;;;4.90;99.90;;;5.50;65.64;101916.63;5045043;28;20486;-77
2022/02/12 09:57:30;;;;;;;15.77;2.88;;;5.00;99.90;;;5.48;64.40;101916.94;5062580;28;20051;-77
2022/02/12 10:00:07;;;;;;;11.95;3.15;;;5.10;99.90;;;5.97;65.50;101911.13;5063033;28;20087;-79
2022/02/12 10:02:42;;;;;;;14.32;3.30;;;5.30;99.90;;;6.17;63.81;101907.25;5043973;28;20067;-79
2022/02/12 10:05:34;;;;;;;13.35;3.28;;;5.50;99.90;;;6.31;61.74;101913.72;5044209;28;20397;-77
2022/02/12 10:08:15;;;;;;;9.10;2.85;;;5.70;99.90;;;6.79;61.15;101911.59;5063423;28;20430;-79
2022/02/12 10:10:45;;;;;;;12.07;2.85;;;6.00;99.90;;;6.62;59.59;101902.97;5063245;28;20021;-78
2022/02/12 10:13:32;;;;;;;12.23;2.78;;;6.00;99.90;;;6.81;60.80;101887.94;5061167;28;20075;-77
2022/02/12 10:16:04;;;;;;;10.88;3.17;;;6.10;99.90;;;6.68;60.59;101888.72;5061170;28;20075;-76
2022/02/12 10:18:39;;;;;;;11.43;2.75;;;6.20;99.90;;;6.73;60.59;101882.25;5045020;28;20049;-78
2022/02/12 10:21:07;;;;;;;8.15;2.75;;;6.20;99.90;;;6.73;60.75;101885.03;5051338;23;20497;-82
2022/02/12 10:23:42;;;;;;;12.05;2.88;;;6.10;99.90;;;7.08;59.77;101880.81;5029322;28;20143;-83
2022/02/12 10:26:14;;;;;;;10.57;2.55;;;6.20;99.90;;;6.68;58.99;101868.44;5046936;28;20033;-82